Index of /images

[ICO]NameLast modifiedSizeDescription

[DIR]Parent Directory  -
[IMG]030912.jpg25-Sep-2005 13:05 172K
[IMG]030912small.jpg25-Sep-2005 13:05 66K
[IMG]08_Les_Paul_halloffame.jpg24-Nov-2008 10:21 33K
[IMG]1.jpg04-Aug-2006 16:48 92K
[IMG]3_coil_front.gif25-Sep-2005 13:05 14K
[IMG]3_coil_side.gif25-Sep-2005 13:05 11K
[IMG]5stringbass.jpg20-Feb-2007 13:00 135K
[IMG]7_3_in_one.jpg09-Apr-2013 13:03 46K
[IMG]7_3_in_one2.jpg21-Jun-2013 13:52 46K
[IMG]7_string_hum.jpg25-Sep-2005 13:05 19K
[IMG]7_string_invader.jpg25-Sep-2005 13:05 20K
[IMG]7strg_active_soapbar.jpg05-Apr-2013 12:11 11K
[IMG]7strg_metal_covers.jpg05-Apr-2013 12:11 11K
[IMG]7strg_uncovered_mount.jpg05-Apr-2013 12:10 13K
[IMG]7stringhum.gif25-Sep-2005 13:05 68K
[IMG]7stringhum.jpg25-Sep-2005 13:05 25K
[IMG]8_3_in_one.jpg09-Apr-2013 13:03 47K
[IMG]8_3_in_one2.jpg21-Jun-2013 13:51 50K
[IMG]8_string_Metal_Covers3.jpg18-Jun-2013 15:10 49K
[IMG]8strg_active_soapbar.jpg05-Apr-2013 12:16 12K
[IMG]8strg_metal_covers.jpg05-Apr-2013 12:15 12K
[IMG]8strg_uncovered_mount.jpg05-Apr-2013 12:18 14K
[DIR]12allTemplates/22-Mar-2010 12:42 -
[IMG]12hum.gif25-Sep-2005 13:05 57K
[IMG]12hum.jpg25-Sep-2005 13:05 26K
[IMG]36.jpg25-Sep-2005 13:05 252K
[   ]60_watt_convertible.pdf25-Sep-2005 13:05 1.6M
[IMG]78evh.gif25-Sep-2005 13:05 59K
[IMG]78evh.jpg25-Sep-2005 13:05 24K
[   ]84-50_tube_amp.pdf25-Sep-2005 13:05 290K
[   ]84_40.pdf25-Sep-2005 13:05 594K
[   ]96_mama_mia.pdf21-Oct-2005 13:34 1.3M
[   ]100_watt_convertible.pdf25-Sep-2005 13:05 1.7M
[   ]400_bass.pdf25-Sep-2005 13:05 537K
[   ]400_bass_x_2.pdf25-Sep-2005 13:05 380K
[IMG]1014-1-05.jpg25-Sep-2005 13:05 7.8K
[IMG]2008LE_2.jpg24-Nov-2008 10:21 73K
[   ]501020-105_mustaine.pdf09-May-2006 16:46 82K
[IMG]AGBRONZ1.jpg25-Sep-2005 13:05 18K
[IMG]AHIGfinalcover.jpg29-Aug-2008 14:06 51K
[IMG]APH-1.jpg25-Sep-2005 13:05 9.5K
[IMG]APS-1.jpg25-Sep-2005 13:05 7.8K
[IMG]AlJimGrammys.sm.jpg25-Sep-2005 13:05 48K
[   ]Amp_parts_price_list.pdf25-Sep-2005 13:05 27K
[IMG]Antiquity2 Logo.jpg25-Sep-2005 13:05 573K
[IMG]AntiquityLogo.jpg25-Sep-2005 13:05 16K
[IMG]AvionPress.jpg22-May-2006 16:34 15K
[IMG]BCRichGuitars.jpg25-Sep-2005 13:05 27K
[IMG]BasslinesLogo.jpg25-Sep-2005 13:05 6.5K
[IMG]BraveryAntwerp.jpg23-May-2006 11:27 12K
[IMG]BraveryBarcelona.jpg23-May-2006 11:27 13K
[IMG]BraveryDM.jpg23-May-2006 11:27 12K
[IMG]BraveryFrankfurt.jpg23-May-2006 11:27 12K
[IMG]BraveryGeneva.jpg23-May-2006 11:27 11K
[IMG]BraveryIstanbul.jpg23-May-2006 11:27 11K
[IMG]BraveryMarseille.jpg23-May-2006 11:27 10K
[   ]CHRIS.PDF17-Jul-2008 10:34 164K
[DIR]Custom_Shop_CS/22-Nov-2010 16:54 -
[DIR]Custom_shop_2/26-Nov-2012 14:57 -
[IMG]DSC0196[1].jpg29-Aug-2008 14:06 34K
[IMG]DSCF2928.jpg24-Nov-2008 10:21 91K
[IMG]DSCF2933_2.jpg24-Nov-2008 10:21 77K
[IMG]DSCF2936.jpg24-Nov-2008 10:21 81K
[IMG]DSC_3141_2.jpg24-Nov-2008 10:21 111K
[IMG]DSC_3145_2.jpg24-Nov-2008 10:21 29K
[IMG]DTAR-logo.color.gif25-Sep-2005 13:05 2.8K
[IMG]Dime.jpg25-Sep-2005 13:05 27K
[IMG]DtarLogo.jpg25-Sep-2005 13:05 18K
[IMG]DtarLogo2.jpg25-Sep-2005 13:05 25K
[DIR]FB-contest/17-Dec-2010 11:40 -
[DIR]FB/29-Oct-2010 11:17 -
[SND]Full Shred.wav03-Dec-2013 14:57 11M
[SND]Full_Shred.aac03-Dec-2013 15:13 425K
[IMG]GFIRE_SPLASH.gif25-Sep-2005 13:05 29K
[   ]GW_blackouts_mick1.swf31-Oct-2007 15:42 99K
[IMG]High.gif08-Aug-2007 15:44 1.2K
[IMG]Hum-Cancelling.gif08-Aug-2007 15:47 1.2K
[IMG]Hum.gif08-Aug-2007 15:44 1.2K
[IMG]IMG_0719_2.jpg24-Nov-2008 10:21 33K
[IMG]Image1.jpg15-Jun-2006 16:15 5.5K
[IMG]Image2.jpg15-Jun-2006 16:15 13K
[IMG]Image3.jpg15-Jun-2006 16:15 22K
[IMG]JBJR.jpg25-Sep-2005 13:05 27K
[IMG]JBJR_new.jpg25-Sep-2005 13:05 5.0K
[IMG]Jazzclstk2 .jpg25-Sep-2005 13:05 114K
[IMG]Jazzclstk2.jpg25-Sep-2005 13:05 57K
[IMG]Jazzclstk2_sm.jpg25-Sep-2005 13:05 6.5K
[   ]Kammerer4.pdf25-Sep-2005 13:05 90K
[IMG]Moderate.gif08-Aug-2007 15:44 1.2K
[IMG]NewLogo4.jpg25-Sep-2005 13:05 5.9K
[   ]New Products Project Leader022013 Final.doc27-Mar-2014 17:09 52K
[IMG]Players' Pick.gif22-Aug-2007 15:43 1.2K
[IMG]Prague.jpg23-May-2006 11:27 13K
[IMG]Pro-Shop.gif16-Aug-2007 13:40 0
[IMG]Pro.gif22-Aug-2007 15:45 1.2K
[IMG]Pro Shop.gif22-Aug-2007 15:46 1.2K
[IMG]Pro Shop.jpg16-Aug-2007 13:43 1.9K
[IMG]Rock_facebooktext.jpg21-Oct-2010 23:09 138K
[IMG]SA-1.jpg25-Sep-2005 13:05 6.2K
[IMG]SA-3sc.jpg25-Sep-2005 13:05 7.4K
[IMG]SCR-1.jpg25-Sep-2005 13:05 28K
[IMG]SCR-1_new.jpg25-Sep-2005 13:05 3.4K
[IMG]SDBR.jpg25-Sep-2005 13:05 26K
[IMG]SDBR_new.jpg25-Sep-2005 13:05 3.5K
[DIR]SD_Myspace/05-Nov-2010 12:53 -
[DIR]SD_facebook/21-Oct-2010 23:05 -
[IMG]SDlogo.JPG25-Sep-2005 13:05 15K
[   ]SFX-03_GP_MAY06.pdf13-Apr-2006 14:21 393K
[IMG]SGRpg8-String.jpg05-Oct-2009 15:23 266K
[IMG]SH-1.jpg25-Sep-2005 13:05 10K
[IMG]SH-2.jpg25-Sep-2005 13:05 9.5K
[IMG]SH-4JB.blk.jpg25-Sep-2005 13:05 10K
[IMG]SH-5.jpg25-Sep-2005 13:05 8.3K
[IMG]SH-8.jpg25-Sep-2005 13:05 9.5K
[IMG]SH-12.jpg25-Sep-2005 13:05 9.6K
[IMG]SH-55.jpg25-Sep-2005 13:05 7.2K
[IMG]SH-PG1.jpg25-Sep-2005 13:05 10K
[IMG]SHR-1b.jpg25-Sep-2005 13:05 26K
[IMG]SHR-1b_new.jpg25-Sep-2005 13:05 30K
[IMG]SJB-2b.jpg25-Sep-2005 13:05 8.2K
[IMG]SLSD.jpg25-Sep-2005 13:05 28K
[IMG]SLSD_new.jpg25-Sep-2005 13:05 4.2K
[IMG]SMB-4d.jpg25-Sep-2005 13:05 9.3K
[IMG]SPB-3.jpg25-Sep-2005 13:05 8.5K
[IMG]SRIBACK.jpg26-Feb-2014 10:36 145K
[IMG]SRIBACK55.jpg19-Dec-2013 11:27 310K
[IMG]SRIBACK551.jpg09-Aug-2011 13:48 360K
[IMG]SSL-1.jpg25-Sep-2005 13:05 7.2K
[IMG]SSL-4.jpg25-Sep-2005 13:05 6.4K
[IMG]ST59-1.jpg25-Sep-2005 13:05 7.4K
[IMG]STHR-1.jpg25-Sep-2005 13:05 6.5K
[IMG]STK-J1b.jpg25-Sep-2005 13:05 8.6K
[IMG]STK-S1.jpg25-Sep-2005 13:05 7.9K
[IMG]STL-1.jpg25-Sep-2005 13:05 6.6K
[IMG]SeymourDuncanStar.jpg25-Sep-2005 13:05 24K
[IMG]Single Coil.gif22-Aug-2007 15:45 1.2K
[DIR]TC/09-Nov-2010 15:36 -
[IMG]VSGO.jpg25-Sep-2005 13:05 61K
[IMG]VSGO_sm.jpg25-Sep-2005 13:05 4.6K
[IMG]VonDutchJeffBeck.jpg01-Dec-2005 15:55 21K
[IMG]abglivecdcover.jpg25-Sep-2005 13:05 20K
[IMG]about_us.jpg25-Sep-2005 13:05 9.3K
[DIR]about_us/20-Mar-2007 14:20 -
[IMG]aboutusant.jpg25-Sep-2005 13:05 12K
[IMG]aboutusant2.jpg25-Sep-2005 13:05 10K
[IMG]aboutusbaselines.jpg25-Sep-2005 13:05 6.6K
[   ]aboutusbenedetto25-Sep-2005 13:05 37K
[IMG]aboutusbenedetto copy.jpg25-Sep-2005 13:05 10K
[IMG]aboutusdtar.jpg25-Sep-2005 13:05 16K
[IMG]aboutussdlogo.jpg25-Sep-2005 13:05 22K
[IMG]abyss_arch_top.jpg01-Feb-2006 16:36 28K
[IMG]ac_banjo.jpg25-Sep-2005 13:05 14K
[IMG]ac_banjoinstall.jpg25-Sep-2005 13:05 11K
[IMG]ac_bassbrdg2twin.jpg25-Sep-2005 13:05 25K
[IMG]ac_bassbrdgbass.jpg25-Sep-2005 13:05 19K
[IMG]ac_bassbrdgxl.jpg25-Sep-2005 13:05 23K
[IMG]ac_bassgtr.jpg25-Sep-2005 13:05 18K
[IMG]ac_berimbau.jpg25-Sep-2005 13:05 17K
[IMG]ac_berimbauin.jpg25-Sep-2005 13:05 12K
[IMG]ac_bongos.jpg25-Sep-2005 13:05 20K
[IMG]ac_bongosinstall.jpg25-Sep-2005 13:05 24K
[IMG]ac_bottles.jpg25-Sep-2005 13:05 21K
[IMG]ac_bouzbrdg.jpg25-Sep-2005 13:05 12K
[IMG]ac_bouzouki.jpg25-Sep-2005 13:05 18K
[IMG]ac_classbrdgsad.jpg25-Sep-2005 13:05 23K
[IMG]ac_classbrdgssad.jpg25-Sep-2005 13:05 12K
[IMG]ac_classbrdgtwin.jpg25-Sep-2005 13:05 7.0K
[IMG]ac_classical.jpg25-Sep-2005 13:05 14K
[IMG]ac_classicalbrdg.jpg25-Sep-2005 13:05 8.2K
[IMG]ac_conga.jpg25-Sep-2005 13:05 29K
[IMG]ac_congainstall.jpg25-Sep-2005 13:05 15K
[IMG]ac_cutawayview.jpg25-Sep-2005 13:05 12K
[IMG]ac_cymbalinstall.jpg25-Sep-2005 13:05 49K
[IMG]ac_cymbalskew.jpg25-Sep-2005 13:05 16K
[IMG]ac_dbl_bass.jpg25-Sep-2005 13:05 12K
[IMG]ac_dobro.jpg25-Sep-2005 13:05 17K
[IMG]ac_dobroinstall.jpg25-Sep-2005 13:05 22K
[IMG]ac_endpin_jack.jpg25-Sep-2005 13:05 8.2K
[IMG]ac_glassinstall.jpg25-Sep-2005 13:05 8.7K
[IMG]ac_grandpiano.jpg25-Sep-2005 13:05 6.1K
[IMG]ac_grandpianoin.jpg25-Sep-2005 13:05 16K
[IMG]ac_guitar.jpg25-Sep-2005 13:05 19K
[IMG]ac_guitport.jpg25-Sep-2005 13:05 12K
[IMG]ac_hamdulc.jpg25-Sep-2005 13:05 7.4K
[IMG]ac_hamdulcbrdg.jpg25-Sep-2005 13:05 13K
[IMG]ac_hammer2.jpg25-Sep-2005 13:05 8.0K
[IMG]ac_hammer3.jpg25-Sep-2005 13:05 8.9K
[IMG]ac_handdrum.jpg25-Sep-2005 13:05 7.7K
[IMG]ac_harmonica.jpg25-Sep-2005 13:05 5.3K
[IMG]ac_harmonica_w_in.jpg25-Sep-2005 13:05 6.8K
[IMG]ac_harmonica_w_out.jpg25-Sep-2005 13:05 4.9K
[IMG]ac_harp.jpg25-Sep-2005 13:05 20K
[IMG]ac_harpboard.jpg25-Sep-2005 13:05 8.0K
[IMG]ac_jazzguit.jpg25-Sep-2005 13:05 19K
[IMG]ac_kalima_in.jpg25-Sep-2005 13:05 5.2K
[IMG]ac_kalimba.jpg25-Sep-2005 13:05 11K
[IMG]ac_logdrum.jpg25-Sep-2005 13:05 5.2K
[IMG]ac_logdrum_in.jpg25-Sep-2005 13:05 3.9K
[IMG]ac_mando_in.jpg25-Sep-2005 13:05 9.2K
[IMG]ac_mandolin.jpg25-Sep-2005 13:05 13K
[IMG]ac_oud.jpg25-Sep-2005 13:05 16K
[IMG]ac_oud_in.jpg25-Sep-2005 13:05 8.7K
[IMG]ac_pertimbre.jpg25-Sep-2005 13:05 15K
[IMG]ac_piano_up.jpg25-Sep-2005 13:05 9.4K
[IMG]ac_piano_up_in.jpg25-Sep-2005 13:05 6.4K
[IMG]ac_sitar.jpg25-Sep-2005 13:05 18K
[IMG]ac_sitar_in.jpg25-Sep-2005 13:05 16K
[IMG]ac_steel.jpg25-Sep-2005 13:05 12K
[IMG]ac_steel_in.jpg25-Sep-2005 13:05 22K
[IMG]ac_steel_with.jpg25-Sep-2005 13:05 18K
[IMG]ac_tube.jpg25-Sep-2005 13:05 14K
[IMG]ac_violin.jpg25-Sep-2005 13:05 17K
[IMG]ac_violin_in.jpg25-Sep-2005 13:05 20K
[IMG]ac_woody.jpg25-Sep-2005 13:05 14K
[IMG]acbassguitar.jpg25-Sep-2005 13:05 11K
[IMG]acbassinstall.jpg25-Sep-2005 13:05 8.5K
[IMG]acguitar.jpg25-Sep-2005 13:05 28K
[IMG]acguitportin.jpg25-Sep-2005 13:05 21K
[IMG]acoustic.jpg25-Sep-2005 13:05 5.8K
[IMG]acoustic_picups.jpg25-Sep-2005 13:05 4.5K
[IMG]acousticdesc.jpg25-Sep-2005 13:05 11K
[IMG]ad_davey.jpg25-Sep-2005 13:05 77K
[IMG]ad_davey_sm.jpg25-Sep-2005 13:05 5.8K
[IMG]ad_meegs.jpg25-Sep-2005 13:05 48K
[IMG]ad_meegs_sm.jpg25-Sep-2005 13:05 15K
[IMG]ad_mm.jpg25-Sep-2005 13:05 54K
[IMG]ad_mm_sm.jpg25-Sep-2005 13:05 5.8K
[IMG]ad_sh8.jpg25-Sep-2005 13:05 32K
[IMG]ad_sh8_sm.jpg25-Sep-2005 13:05 4.3K
[IMG]ad_shr1.jpg25-Sep-2005 13:05 32K
[IMG]ad_shr1_sm.jpg25-Sep-2005 13:05 4.0K
[IMG]ad_sjb2.jpg25-Sep-2005 13:05 63K
[IMG]ad_sjb2_sm.jpg25-Sep-2005 13:05 6.3K
[IMG]advanced_search.jpg25-Sep-2005 13:05 9.7K
[   ]aec_manual.pdf25-Sep-2005 13:05 49K
[IMG]againstme.jpg25-Sep-2005 13:05 20K
[IMG]ajb.gif25-Sep-2005 13:05 10K
[IMG]ajj-1.jpg25-Sep-2005 13:05 8.5K
[IMG]ajj-2.jpg25-Sep-2005 13:05 11K
[IMG]al.jpg13-Jan-2006 13:31 18K
[IMG]alandwarren.jpg25-Sep-2005 13:05 16K
[IMG]alexander_swd.jpg25-Sep-2005 13:05 71K
[IMG]alexander_swd_sm.jpg25-Sep-2005 13:05 12K
[IMG]amp_manual_pu.jpg25-Sep-2005 13:05 6.0K
[IMG]amp_manuals.jpg25-Sep-2005 13:05 27K
[IMG]amp_manuals_desc.jpg25-Sep-2005 13:05 20K
[IMG]anberlin.jpg07-Nov-2005 12:36 25K
[IMG]animation5.gif23-Feb-2006 14:46 745K
[IMG]ant-firebird.jpg25-Sep-2005 13:05 6.9K
[IMG]ant.jpg25-Sep-2005 13:05 7.3K
[IMG]ant60jet.jpg25-Sep-2005 13:05 9.6K
[IMG]ant60myth-mustang.jpg25-Sep-2005 13:05 10K
[IMG]ant60myth.jpg25-Sep-2005 13:05 10K
[IMG]ant1014-0125-Sep-2005 13:05 45K
[IMG]ant1014-11.jpg25-Sep-2005 13:05 8.7K
[IMG]ant1024-01-02.jpg25-Sep-2005 13:05 8.0K
[IMG]ant1024-08-09-10.jpg25-Sep-2005 13:05 8.4K
[IMG]ant1024-8-9-10.jpg25-Sep-2005 13:05 48K
[IMG]ant1024-21.jpg25-Sep-2005 13:05 7.4K
[IMG]ant1024-22.jpg25-Sep-2005 13:05 22K
[IMG]ant1024-26.jpg25-Sep-2005 13:05 8.3K
[IMG]ant1024-27.jpg25-Sep-2005 13:05 47K
[IMG]ant1024-32.jpg25-Sep-2005 13:05 8.0K
[IMG]ant1024_8_9_10.jpg25-Sep-2005 13:05 44K
[IMG]ant1034-01-02.jpg25-Sep-2005 13:05 10K
[IMG]ant1034-05.jpg25-Sep-2005 13:05 43K
[IMG]ant1034-31.jpg25-Sep-2005 13:05 10K
[IMG]ant1034-32-41-42.jpg25-Sep-2005 13:05 8.0K
[IMG]ant1034-35-36.jpg25-Sep-2005 13:05 8.4K
[IMG]ant1034-51.jpg25-Sep-2005 13:05 52K
[IMG]ant1034-61-62-63.jpg25-Sep-2005 13:05 7.3K
[IMG]ant1034-63-64.jpg25-Sep-2005 13:05 8.1K
[IMG]ant1034-65-66.jpg25-Sep-2005 13:05 8.8K
[IMG]ant1044-01.jpg25-Sep-2005 13:05 47K
[IMG]ant1044-05-06.jpg25-Sep-2005 13:05 9.0K
[IMG]ant1044-11-12.jpg25-Sep-2005 13:05 11K
[IMG]ant_hb.jpg27-Mar-2008 14:52 7.5K
[IMG]anthrax.jpg25-Sep-2005 13:05 13K
[IMG]antii.jpg25-Sep-2005 13:05 6.7K
[IMG]antiquity_desc.jpg25-Sep-2005 13:05 19K
[IMG]antiquity_pu.jpg25-Sep-2005 13:05 3.7K
[IMG]antjive.jpg25-Sep-2005 13:05 8.7K
[IMG]antq.jpg25-Sep-2005 13:05 2.7K
[IMG]antq2.jpg25-Sep-2005 13:05 8.2K
[IMG]antqbox.jpg25-Sep-2005 13:05 21K
[IMG]apb-1.jpg25-Sep-2005 13:05 9.2K
[IMG]apb-2.jpg25-Sep-2005 13:05 12K
[IMG]apst.jpg25-Sep-2005 13:05 8.2K
[IMG]aptl-3jd.jpg25-Sep-2005 13:05 12K
[IMG]aria.jpg25-Sep-2005 13:05 12K
[IMG]arrows-ffffff.png09-Jul-2008 22:18 244
[IMG]artinger.jpg25-Sep-2005 13:05 12K
[IMG]artists.gif04-Aug-2006 14:48 355
[IMG]artists.jpg25-Sep-2005 13:05 20K
[DIR]artists/13-Jun-2012 14:58 -
[IMG]artists_band.jpg25-Sep-2005 13:05 14K
[IMG]artists_band_pu.jpg25-Sep-2005 13:05 7.2K
[DIR]artists_bu/25-Jan-2006 17:07 -
[IMG]artists_database.jpg25-Sep-2005 13:05 7.3K
[IMG]artists_database_desc.jpg25-Sep-2005 13:05 21K
[IMG]artists_desc.jpg25-Sep-2005 13:05 23K
[DIR]artists_news/16-Aug-2011 12:03 -
[DIR]artists_update/16-Feb-2010 11:48 -
[IMG]asb-5.jpg25-Sep-2005 13:05 7.6K
[IMG]asb-6.jpg25-Sep-2005 13:05 7.0K
[IMG]asb2-5.jpg25-Sep-2005 13:05 8.0K
[IMG]asb2-6.jpg25-Sep-2005 13:05 7.5K
[IMG]asb2asb.gif25-Sep-2005 13:05 13K
[IMG]australia.jpg25-Sep-2005 13:05 24K
[IMG]authorized_dealer_banner.gif27-Oct-2005 16:16 257K
[IMG]backbackground_pedals.jpg16-Jan-2014 16:51 360K
[IMG]background-blue1.jpg15-Nov-2005 23:56 351
[IMG]background-save.jpg22-Jul-2009 09:03 292K
[IMG]background.jpg.bak14-Jul-2011 12:19 443K
[IMG]background.png09-Jul-2009 21:28 1.5M
[IMG]background2.jpg15-Mar-2013 15:06 217K
[IMG]background_halloween.jpg30-Oct-2012 10:52 314K
[IMG]background_pedals.jpg26-Feb-2014 10:17 145K
[IMG]background_pedals5.jpg06-Nov-2013 16:04 454K
[IMG]backlitguitar2.jpg25-Sep-2005 13:05 87K
[IMG]backlitguitarsmall.jpg25-Sep-2005 13:05 11K
[IMG]backstagepass.jpg14-Jun-2012 10:26 4.6K
[IMG]bailey.jpg25-Sep-2005 13:05 4.3K
[IMG]banjo.jpg25-Sep-2005 13:05 7.2K
[IMG]banner2.jpg25-Jul-2008 11:33 20K
[IMG]banner_blog_v1.jpg21-Oct-2010 14:42 84K
[IMG]base11510-50.jpg25-Sep-2005 13:05 9.1K
[   ]bass_300x2.pdf25-Sep-2005 13:05 433K
[DIR]bass_player/25-Oct-2010 16:23 -
[IMG]basshbcs.gif25-Sep-2005 13:05 69K
[IMG]basshbcs.jpg25-Sep-2005 13:05 28K
[IMG]basslines.jpg25-Sep-2005 13:05 5.4K
[IMG]basslines_bass.gif25-Sep-2005 13:05 2.4K
[IMG]basslines_desc.gif25-Sep-2005 13:05 40K
[IMG]basslines_desc.jpg25-Sep-2005 13:05 12K
[IMG]basslines_desc1.jpg25-Sep-2005 13:05 36K
[IMG]basspickups.gif25-Sep-2005 13:05 17K
[IMG]basstech.gif25-Sep-2005 13:05 4.1K
[IMG]beanie.jpg25-Sep-2005 13:05 5.5K
[IMG]beanie_wt.jpg13-Jan-2006 13:31 8.7K
[IMG]beenie_2.jpg25-Sep-2005 13:05 2.5K
[IMG]ben.jpg25-Sep-2005 13:05 27K
[IMG]bench.jpg25-Sep-2005 13:05 26K
[IMG]bench2.jpg25-Sep-2005 13:05 366K
[IMG]benedetto.jpg25-Sep-2005 13:05 4.7K
[IMG]benedettoLogo.gif25-Sep-2005 13:05 6.9K
[IMG]benelogosmall.gif25-Sep-2005 13:05 2.2K
[IMG]bg1400cs.gif25-Sep-2005 13:05 66K
[IMG]bg1400cs.jpg25-Sep-2005 13:05 24K
[DIR]bgimage-pre102710/27-Oct-2010 15:29 -
[DIR]bgimage.new/27-Oct-2010 15:26 -
[DIR]bgimage.old/30-Aug-2010 12:27 -
[DIR]bgimage/27-Oct-2010 15:45 -
[   ]biamp_8000.pdf25-Sep-2005 13:05 1.5M
[IMG]big11510-20.jpg25-Sep-2005 13:05 8.1K
[IMG]big_pickup.jpg25-Sep-2005 13:05 42K
[   ]big_pickup.pdf25-Sep-2005 13:05 2.0M
[IMG]big_pu.jpg25-Sep-2005 13:05 8.6K
[IMG]big_pu1.jpg25-Sep-2005 13:05 34K
[IMG]big_pu_descr.jpg25-Sep-2005 13:05 34K
[DIR]bigpickup_images/18-Jul-2008 12:58 -
[DIR]bigpickup_thumbnails/25-Sep-2005 13:05 -
[IMG]bkelliher.jpg25-Sep-2005 13:05 48K
[IMG]blacklogo.jpg25-Sep-2005 13:05 9.3K
[IMG]blue_saraceno.jpg25-Sep-2005 13:05 11K
[IMG]blurb1.jpg25-Sep-2005 13:05 16K
[IMG]blurb2.jpg25-Sep-2005 13:05 15K
[IMG]blurb3.jpg25-Sep-2005 13:05 11K
[IMG]blurb4.jpg25-Sep-2005 13:05 11K
[IMG]blurb5.jpg25-Sep-2005 13:05 12K
[IMG]blurb6.jpg25-Sep-2005 13:05 13K
[IMG]blurb7.jpg25-Sep-2005 13:05 14K
[IMG]blurb8.jpg25-Sep-2005 13:05 10K
[IMG]blurb9.jpg25-Sep-2005 13:05 10K
[IMG]bobbin_colors.gif25-Sep-2005 13:05 16K
[IMG]bonaroo2003.jpg25-Sep-2005 13:05 13K
[IMG]bonaroo2003_big.jpg25-Sep-2005 13:05 63K
[IMG]booster.jpg25-Sep-2005 13:05 27K
[IMG]boosweet.gif25-Sep-2005 13:05 47K
[IMG]bottombg.jpg25-Sep-2005 13:05 630
[IMG]bottomlogo.jpg25-Sep-2005 13:05 3.7K
[DIR]bottomnav/25-Sep-2005 13:05 -
[IMG]bravery.jpg25-Sep-2005 13:05 21K
[IMG]bucketblue.jpg25-Sep-2005 13:05 4.8K
[IMG]bucketred.jpg25-Sep-2005 13:05 6.1K
[IMG]bullet.gif10-Jul-2009 14:37 61
[IMG]burnscs.jpg25-Sep-2005 13:05 25K
[DIR]buy_online/21-Nov-2013 16:29 -
[IMG]c_garvey.jpg25-Sep-2005 13:05 26K
[IMG]camo.jpeg25-Sep-2005 13:05 27K
[IMG]campilongo_cd.jpg25-Sep-2005 13:05 16K
[IMG]canada.jpg24-Oct-2005 16:00 33K
[IMG]chuck.jpg13-Jan-2006 13:31 13K
[IMG]circuits.jpg25-Sep-2005 13:05 8.5K
[IMG]classic_stack.jpg13-Jan-2006 13:31 9.3K
[IMG]clear.gif25-Sep-2005 13:05 807
[IMG]clip.jpg25-Sep-2005 13:05 16K
[IMG]clipart_firelight_070.gif25-Sep-2005 13:05 5.7K
[IMG]closeup.jpg25-Sep-2005 13:05 24K
[IMG]company.jpg25-Sep-2005 13:05 8.7K
[DIR]company/19-Jul-2007 14:25 -
[IMG]company1.jpg25-Sep-2005 13:05 84K
[IMG]companys.jpg25-Sep-2005 13:05 22K
[IMG]contact.jpg25-Sep-2005 13:05 8.8K
[IMG]contest_descr.jpg25-Sep-2005 13:05 11K
[IMG]contest_pu.jpg25-Sep-2005 13:05 5.1K
[   ]convertible_2000.pdf25-Sep-2005 13:05 738K
[IMG]cool_rails_big.jpg25-Sep-2005 13:05 14K
[   ]cool_rails_bridge.pdf25-Sep-2005 13:05 9.2K
[   ]cool_rails_neck.pdf25-Sep-2005 13:05 9.2K
[IMG]cool_rails_redesign.jpg25-Sep-2005 13:05 3.5K
[IMG]coolrails.jpg25-Sep-2005 13:05 9.2K
[IMG]cover_t.jpg25-Sep-2005 13:05 3.6K
[IMG]cover_trembuckers.jpg25-Sep-2005 13:05 321K
[IMG]cover_trembuckers_small.jpg25-Sep-2005 13:05 14K
[DIR]css/05-Oct-2006 10:02 -
[IMG]custom_pu.jpg25-Sep-2005 13:05 3.3K
[IMG]custom_shop.jpg25-Sep-2005 13:05 19K
[DIR]custom_shop/06-Dec-2010 14:28 -
[IMG]custom_shop_2.jpg25-Sep-2005 13:05 30K
[IMG]customshop.jpg25-Sep-2005 13:05 5.7K
[IMG]d_b_m.jpg25-Sep-2005 13:05 38K
[IMG]dbm.jpg25-Sep-2005 13:05 19K
[IMG]dbs1.jpg16-Nov-2005 16:34 4.5K
[IMG]dbs2.jpg16-Nov-2005 16:34 3.9K
[IMG]dbs3.jpg16-Nov-2005 16:34 7.1K
[IMG]dbs4.jpg16-Nov-2005 16:34 2.9K
[IMG]dbs5.jpg16-Nov-2005 16:34 4.3K
[IMG]dbs6.jpg16-Nov-2005 16:34 5.6K
[IMG]dbs7.jpg16-Nov-2005 16:34 4.9K
[IMG]dbs8.jpg16-Nov-2005 16:35 7.4K
[IMG]dbs9.jpg16-Nov-2005 16:35 4.4K
[IMG]dbs10.jpg16-Nov-2005 16:34 5.4K
[IMG]dbs_banner.gif25-Oct-2005 11:25 25K
[IMG]dc_distressed.jpg25-Sep-2005 13:05 22K
[IMG]dd.jpg25-Sep-2005 13:05 9.8K
[IMG]dealers.gif04-Aug-2006 14:48 391
[DIR]dealers/17-Jun-2013 15:25 -
[DIR]dealors1/04-May-2007 11:26 -
[IMG]derek.jpg13-Jan-2006 13:31 18K
[IMG]df.jpg25-Sep-2005 13:05 18K
[IMG]df_ahriman.jpg25-Sep-2005 13:05 285K
[IMG]diagonal.460.jpg25-Sep-2005 13:05 104K
[IMG]dice_bug.gif25-Sep-2005 13:05 391
[IMG]dime_ad.jpg25-Sep-2005 13:05 115K
[IMG]dimebucker.jpg25-Sep-2005 13:05 16K
[DIR]dimensions/14-Mar-2014 15:31 -
[DIR]directors_chair/13-Jan-2012 17:41 -
[IMG]dklaus.jpg25-Sep-2005 13:05 36K
[IMG]domestic.jpg25-Sep-2005 13:05 9.0K
[IMG]domestic_spot.jpg25-Sep-2005 13:05 39K
[IMG]dpcoverpa.jpg25-Sep-2005 13:05 57K
[IMG]dsco2044.jpg25-Sep-2005 13:05 22K
[IMG]dsco2072.gif25-Sep-2005 13:05 69K
[IMG]dsco2072.jpg25-Sep-2005 13:05 73K
[IMG]dsco2075.gif25-Sep-2005 13:05 50K
[IMG]dsco2075.jpg25-Sep-2005 13:05 24K
[IMG]dsco2076.gif25-Sep-2005 13:05 62K
[IMG]dsco2076.jpg25-Sep-2005 13:05 26K
[IMG]dsco2078.gif25-Sep-2005 13:05 64K
[IMG]dsco2078.jpg25-Sep-2005 13:05 29K
[IMG]dsco2079.gif25-Sep-2005 13:05 46K
[IMG]dsco2079.jpg25-Sep-2005 13:05 22K
[IMG]dsco2080.gif25-Sep-2005 13:05 66K
[IMG]dsco2080.jpg25-Sep-2005 13:05 25K
[IMG]dt_11.jpg25-Sep-2005 13:05 8.5K
[   ]dtar_acoustic.swf17-Sep-2007 16:06 47K
[   ]dtar_acoustic_guitar.swf26-Jun-2006 12:56 20K
[IMG]dtar_logo.gif25-Sep-2005 13:05 4.2K
[IMG]duckbucker_big.jpg25-Sep-2005 13:05 13K
[   ]duckbucker_bridge.pdf25-Sep-2005 13:05 9.2K
[   ]duckbucker_neck.pdf25-Sep-2005 13:05 9.2K
[IMG]duckbucker_redesign.jpg25-Sep-2005 13:05 3.1K
[IMG]duncan_charlie.gif25-Sep-2005 13:05 72K
[IMG]duncan_charlie.jpg25-Sep-2005 13:05 27K
[IMG]duncan_design.jpg25-Sep-2005 13:05 21K
[DIR]duncan_designed/24-Sep-2007 11:44 -
[IMG]duncan_designedpu.jpg25-Sep-2005 13:05 13K
[IMG]duncan_dyn0.gif25-Sep-2005 13:05 80K
[IMG]duncan_dyn0.jpg25-Sep-2005 13:05 31K
[IMG]duncandesigned.jpg25-Sep-2005 13:05 3.8K
[IMG]dundinocs.jpg25-Sep-2005 13:05 24K
[IMG]duquesne_retouch.jpg13-Jan-2006 13:31 24K
[IMG]e_holopainen.jpg25-Apr-2006 13:53 2.1K
[IMG]effects.jpg25-Sep-2005 13:05 7.0K
[IMG]effects_pedals.jpg25-Sep-2005 13:05 13K
[IMG]effects_pedals_desc.jpg25-Sep-2005 13:05 14K
[IMG]electric.jpg25-Sep-2005 13:05 11K
[IMG]electric_hum.gif25-Sep-2005 13:05 2.0K
[IMG]electric_hum_bu.gif25-Sep-2005 13:05 2.0K
[IMG]electric_rails1.jpg25-Sep-2005 13:05 18K
[IMG]electric_strat.jpg25-Sep-2005 13:05 40K
[IMG]electric_teles.gif25-Sep-2005 13:05 2.2K
[IMG]engraving01.jpg25-Sep-2005 13:05 14K
[IMG]engravingcs.jpg25-Sep-2005 13:05 35K
[IMG]epruitt.jpg13-Jan-2006 13:31 26K
[IMG]factory.jpg25-Sep-2005 13:05 7.5K
[IMG]factory_tour.jpg25-Sep-2005 13:05 7.4K
[IMG]factory_tour_01.gif05-Oct-2005 13:39 19K
[IMG]factory_tour_02.gif05-Oct-2005 13:39 51K
[IMG]factory_tour_03.gif05-Oct-2005 13:39 60K
[IMG]factory_tour_desc.jpg25-Sep-2005 13:05 32K
[IMG]faq_pu.jpg25-Sep-2005 13:05 8.3K
[IMG]feature_artists.jpg25-Sep-2005 13:05 25K
[IMG]featured_artists.jpg25-Sep-2005 13:05 8.4K
[DIR]featured_items/27-Nov-2012 15:23 -
[IMG]fenderbass.jpg25-Sep-2005 13:05 10K
[IMG]fiesta_band.jpg25-Sep-2005 13:05 576K
[IMG]fiesta_band_sm.jpg25-Sep-2005 13:05 27K
[IMG]figure1.gif25-Sep-2005 13:05 6.6K
[IMG]figure2.gif25-Sep-2005 13:05 5.9K
[IMG]filter_logo.gif25-Sep-2005 13:05 2.0K
[IMG]flag2.jpg25-Sep-2005 13:05 65K
[DIR]flash/26-Jun-2009 15:00 -
[IMG]fob.jpg25-Sep-2005 13:05 19K
[DIR]footer/17-Jul-2009 11:44 -
[IMG]forum.gif04-Aug-2006 14:48 369
[DIR]forum/28-Sep-2012 13:57 -
[IMG]forumlogo.GIF25-Sep-2005 13:05 4.8K
[IMG]forumlogo.jpg25-Sep-2005 13:05 8.0K
[IMG]frank.JPG25-Sep-2005 13:05 19K
[IMG]free_brochure.jpg25-Sep-2005 13:05 5.8K
[IMG]frisell_guitar_full.jpg25-Sep-2005 13:05 11K
[IMG]fullguitar2.jpg25-Sep-2005 13:05 47K
[IMG]fullguitar_small.jpg25-Sep-2005 13:05 9.0K
[IMG]gaby.jpg25-Sep-2005 13:05 61K
[IMG]gabys.jpg25-Sep-2005 13:05 20K
[IMG]gambali_cervoni.jpg25-Sep-2005 13:05 25K
[IMG]garage_sale.jpg25-Sep-2005 13:05 119K
[IMG]geno.jpg25-Sep-2005 13:05 27K
[IMG]getacro.gif25-Sep-2005 13:05 712
[IMG]gibson335.jpg25-Sep-2005 13:05 36K
[IMG]gibsonben.jpg25-Sep-2005 13:05 9.0K
[IMG]glossary.jpg25-Sep-2005 13:05 21K
[IMG]go.back.gif12-Jul-2007 11:43 1.3K
[IMG]go.gif12-Jul-2007 12:28 1.1K
[IMG]go.jpg01-Aug-2011 08:18 75K
[IMG]go.off.gif12-Jul-2007 12:26 1.1K
[IMG]grammys.jpg25-Sep-2005 13:05 14K
[IMG]gretch_filtetron.gif25-Sep-2005 13:05 76K
[IMG]gretch_filtetron.jpg25-Sep-2005 13:05 35K
[IMG]gretschhilo.gif25-Sep-2005 13:05 88K
[IMG]gretschhilo.jpg25-Sep-2005 13:05 44K
[IMG]gtrheaven.jpg25-Sep-2005 13:05 15K
[IMG]gtrheaven2.jpg25-Sep-2005 13:05 15K
[IMG]gtrheaven logo.jpg25-Sep-2005 13:05 18K
[IMG]guitar1.jpg01-Feb-2006 16:17 23K
[IMG]guitar2.jpg01-Feb-2006 16:17 36K
[IMG]guitar3.jpg01-Feb-2006 16:17 37K
[IMG]guitarbody2.jpg25-Sep-2005 13:05 77K
[IMG]guitarbody_small.jpg25-Sep-2005 13:05 11K
[IMG]guitarpic2.jpg25-Sep-2005 13:05 83K
[IMG]guitarpic_small.jpg25-Sep-2005 13:05 17K
[IMG]guitartop2.jpg25-Sep-2005 13:05 37K
[IMG]guitartop_small.jpg25-Sep-2005 13:05 9.9K
[   ]gus_g_fire_sales_sheet.pdf03-Nov-2011 14:43 2.3M
[DIR]gus_g_pics/07-Nov-2011 10:32 -
[   ]gwtwintubereview.pdf19-Dec-2006 14:33 154K
[IMG]h_01.gif25-Sep-2005 13:05 49K
[IMG]h_02.gif25-Sep-2005 13:05 76K
[IMG]h_03.gif25-Sep-2005 13:05 41K
[IMG]h_all_access.gif25-Sep-2005 13:05 5.4K
[IMG]h_kellie.gif25-Sep-2005 13:05 5.4K
[IMG]h_spacer.gif25-Sep-2005 13:05 1.0K
[IMG]h_welcome.gif25-Sep-2005 13:05 1.4K
[IMG]halford_mike.jpg25-Sep-2005 13:05 29K
[IMG]haynes_1.jpg25-Sep-2005 13:05 27K
[IMG]hb5cs.jpg25-Sep-2005 13:05 18K
[IMG]hbstrat.jpg25-Sep-2005 13:05 24K
[IMG]hbzebracs.gif25-Sep-2005 13:05 64K
[IMG]hbzebracs.jpg25-Sep-2005 13:05 22K
[IMG]hdlogo_flip2.gif06-Feb-2004 04:31 2.7K
[IMG]header.png26-Aug-2010 12:18 10K
[   ]header.zip09-Jul-2009 21:41 45K
[DIR]header/12-Jul-2010 10:13 -
[IMG]header_bg.gif06-Feb-2004 04:31 5.3K
[IMG]hhh1.jpg07-Nov-2005 12:36 39K
[IMG]hhh2.jpg07-Nov-2005 12:36 24K
[IMG]hi_output.jpg25-Sep-2005 13:05 2.1K
[IMG]him.jpg07-Nov-2005 12:36 23K
[DIR]homepage.off/02-Sep-2010 14:57 -
[DIR]homepage/28-Mar-2014 10:39 -
[DIR]homepage_modules/15-Feb-2011 11:42 -
[IMG]hot11510-30.jpg25-Sep-2005 13:05 7.7K
[   ]hot_rails_bridge.pdf25-Sep-2005 13:05 9.3K
[   ]hot_rails_neck.pdf25-Sep-2005 13:05 9.2K
[IMG]hot_rails_redesign.jpg25-Sep-2005 13:05 4.3K
[IMG]hot_rails_redesign_big.jpg25-Sep-2005 13:05 21K
[IMG]hotsoundspot.jpg25-Sep-2005 13:05 7.8K
[IMG]hum5splt.gif25-Sep-2005 13:05 14K
[IMG]hum_desc.gif25-Sep-2005 13:05 37K
[IMG]hum_desc.jpg25-Sep-2005 13:05 5.3K
[IMG]hum_desc1.jpg25-Sep-2005 13:05 13K
[IMG]hum_desc_bu.gif25-Sep-2005 13:05 74K
[IMG]hum_underp90.gif25-Sep-2005 13:05 13K
[IMG]hum_underp_90.gif25-Sep-2005 13:05 16K
[IMG]humbucker.jpg25-Sep-2005 13:05 251K
[IMG]humbucker_01.gif28-Sep-2005 15:25 3.8K
[IMG]humbucker_02.gif28-Sep-2005 15:25 23K
[IMG]humbucker_03.gif28-Sep-2005 15:25 23K
[IMG]humbuckersandp90.gif25-Sep-2005 13:05 24K
[TXT]humbuckersdescr.shtml25-Sep-2005 13:05 25K
[IMG]humcancelling.jpg25-Sep-2005 13:05 1.8K
[IMG]icons.gif10-Jul-2009 16:29 6.4K
[IMG]icons.jpg25-Sep-2005 13:05 20K
[IMG]icons.sav.jpg10-Jul-2009 16:28 20K
[IMG]icons2.gif10-Jul-2009 16:29 6.4K
[IMG]install_pu.jpg25-Sep-2005 13:05 24K
[IMG]install_pus.jpg25-Sep-2005 13:05 8.3K
[IMG]int_spot.jpg25-Sep-2005 13:05 46K
[IMG]international.jpg25-Sep-2005 13:05 12K
[IMG]international_spot.jpg25-Sep-2005 13:05 20K
[IMG]interview.jpg25-Sep-2005 13:05 9.2K
[IMG]interview_inside.jpg17-Mar-2006 13:04 19K
[IMG]interview_main.jpg25-Sep-2005 13:05 40K
[IMG]intro.jpg25-Sep-2005 13:05 56K
[IMG]intro2.jpg25-Sep-2005 13:05 96K
[IMG]intro3.jpg25-Sep-2005 13:05 32K
[IMG]intro4.jpg25-Sep-2005 13:05 48K
[IMG]intro5.jpg25-Sep-2005 13:05 54K
[IMG]intro6.jpg25-Sep-2005 13:05 50K
[IMG]intro7.jpg25-Sep-2005 13:05 42K
[IMG]intro8.jpg25-Sep-2005 13:05 41K
[IMG]intro9.jpg25-Sep-2005 13:05 50K
[IMG]intro10.jpg25-Sep-2005 13:05 41K
[IMG]intro11.jpg25-Sep-2005 13:05 50K
[IMG]intro12.jpg25-Sep-2005 13:05 36K
[IMG]intro13.jpg25-Sep-2005 13:05 61K
[   ]intro_reva.swf25-Sep-2005 13:05 3.0M
[   ]intro_revc.swf25-Sep-2005 13:05 259K
[IMG]ironretouch.jpg13-Jan-2006 13:31 6.1K
[IMG]jaguarguitar.jpg25-Sep-2005 13:05 11K
[IMG]jb.jpg25-Sep-2005 13:05 11K
[IMG]jb_jr_big.jpg25-Sep-2005 13:05 19K
[IMG]jb_jr_big_redesign.jpg25-Sep-2005 13:05 4.2K
[   ]jb_jr_bridge.pdf25-Sep-2005 13:05 9.2K
[   ]jb_jr_neck.pdf25-Sep-2005 13:05 9.2K
[DIR]jcarousel/07-Jul-2009 22:46 -
[IMG]jeff_ks.jpg25-Sep-2005 13:05 64K
[IMG]jeff_ks1.jpg25-Sep-2005 13:05 21K
[IMG]jeff_ks_sm.jpg25-Sep-2005 13:05 20K
[IMG]jessica_strungout.jpg21-Oct-2005 13:34 28K
[IMG]jet.jpg22-Jun-2006 15:42 26K
[DIR]jewelry/27-Jun-2011 13:28 -
[IMG]jlcs.gif25-Sep-2005 13:05 49K
[IMG]jlcs.jpg25-Sep-2005 13:05 18K
[IMG]jlcs_1.jpg25-Sep-2005 13:05 19K
[IMG]jobs.jpg25-Sep-2005 13:05 13K
[IMG]journey.jpg25-Sep-2005 13:05 7.0K
[IMG]jpcs.gif25-Sep-2005 13:05 80K
[IMG]jpcs.jpg25-Sep-2005 13:05 29K
[IMG]jscj.gif25-Sep-2005 13:05 60K
[IMG]jscj.jpg25-Sep-2005 13:05 24K
[IMG]jscs.jpg25-Sep-2005 13:05 23K
[IMG]jscsneck.jpg25-Sep-2005 13:05 20K
[IMG]k_walker.jpg25-Sep-2005 13:05 19K
[IMG]kellie.jpg25-Sep-2005 13:05 90K
[IMG]kellie2_bug.gif25-Sep-2005 13:05 795
[IMG]kellie_jessica.jpg13-Jan-2006 13:31 18K
[IMG]kellies.jpg25-Sep-2005 13:05 25K
[IMG]kevin.jpg25-Sep-2005 13:05 96K
[IMG]kevins.jpg25-Sep-2005 13:05 25K
[   ]ktg1.pdf25-Sep-2005 13:05 344K
[   ]ktg_2075.pdf25-Sep-2005 13:05 193K
[   ]ktg_2100.pdf25-Sep-2005 13:05 21K
[IMG]labels.jpg25-Sep-2005 13:05 14K
[IMG]labels_pu.jpg25-Sep-2005 13:05 5.4K
[IMG]leesona.jpg25-Sep-2005 13:05 78K
[IMG]leesonas.jpg25-Sep-2005 13:05 23K
[IMG]lespaulgold.jpg25-Sep-2005 13:05 7.1K
[DIR]lightview/17-May-2009 14:26 -
[IMG]lil-scream1.jpg25-Sep-2005 13:05 4.0K
[IMG]lil_screamin_demon_big.jpg25-Sep-2005 13:05 14K
[IMG]lil_screamin_demon_redesign.jpg25-Sep-2005 13:05 3.8K
[IMG]little59_redesign.jpg25-Sep-2005 13:05 3.6K
[IMG]little59_redesign_big.jpg25-Sep-2005 13:05 14K
[IMG]little_59.jpg25-Sep-2005 13:05 27K
[   ]little_59_bridge.pdf25-Sep-2005 13:05 9.2K
[   ]little_59_neck.pdf25-Sep-2005 13:05 9.2K
[IMG]live8.jpg25-Sep-2005 13:05 39K
[IMG]livewire.jpg25-Sep-2005 13:05 10K
[IMG]logo.jpg30-Oct-2012 10:52 2.7K
[IMG]logo.png08-Mar-2013 09:03 5.2K
[DIR]logo/12-May-2011 17:02 -
[IMG]logo1.png03-Aug-2011 11:48 6.8K
[IMG]lonestar.jpg25-Sep-2005 13:05 15K
[   ]lsd_bridge.pdf25-Sep-2005 13:05 9.2K
[   ]lsd_neck.pdf25-Sep-2005 13:05 9.2K
[IMG]lunchroom.jpg25-Sep-2005 13:05 78K
[IMG]lunchrooms.jpg25-Sep-2005 13:05 23K
[DIR]luthier_series/18-Aug-2010 09:27 -
[IMG]lw-hmet_ch1.jpg25-Sep-2005 13:05 9.9K
[IMG]lwcs1.jpg25-Sep-2005 13:05 8.6K
[IMG]lwhmet.jpg25-Sep-2005 13:05 9.9K
[IMG]lwhs1.jpg25-Sep-2005 13:05 8.6K
[IMG]lwhs1_cs1.jpg25-Sep-2005 13:05 8.6K
[IMG]mag_mic.jpg25-Sep-2005 13:05 6.7K
[IMG]magmic.jpg25-Sep-2005 13:05 6.4K
[DIR]main/09-Jun-2010 15:58 -
[IMG]main1_01.gif24-Oct-2005 16:26 14K
[IMG]main1_02.gif24-Oct-2005 16:26 40K
[IMG]main1_03.gif24-Oct-2005 16:26 36K
[IMG]main_01.gif28-Sep-2005 16:17 13K
[IMG]main_02.gif28-Sep-2005 16:17 40K
[IMG]main_03.gif28-Sep-2005 16:17 36K
[DIR]main_page/17-Jul-2007 13:59 -
[   ]mama_bear_frets.pdf25-Sep-2005 13:05 790K
[IMG]mama_bear_small.jpg06-Mar-2006 13:38 9.9K
[IMG]mamabear_back.jpg25-Sep-2005 13:05 20K
[IMG]mando4cs.jpg25-Sep-2005 13:05 22K
[IMG]mandohbcs.jpg25-Sep-2005 13:05 26K
[IMG]martinacoustic.jpg25-Sep-2005 13:05 8.2K
[IMG]mcr.jpg25-Sep-2005 13:05 20K
[DIR]menu/31-Aug-2011 16:25 -
[IMG]metal.jpg25-Sep-2005 13:05 3.4K
[DIR]mf/29-Jul-2010 09:04 -
[IMG]mike.jpg02-May-2008 13:44 19K
[IMG]mini3_3.gif25-Sep-2005 13:05 47K
[IMG]mini3_3.jpg25-Sep-2005 13:05 19K
[IMG]mini_brochure.jpg24-Feb-2006 17:06 30K
[   ]mini_catalog.pdf24-Feb-2006 17:13 1.9M
[IMG]mission.jpg25-Sep-2005 13:05 4.8K
[IMG]mj.jpg25-Sep-2005 13:05 15K
[IMG]mjysd.jpg25-Sep-2005 13:05 91K
[IMG]mjysds.jpg25-Sep-2005 13:05 24K
[IMG]mmcs.jpg25-Sep-2005 13:05 19K
[IMG]moderate_output.jpg25-Sep-2005 13:05 2.1K
[IMG]mombaja500cropped_2.jpg24-Nov-2008 10:21 54K
[DIR]movies/28-Jul-2009 21:18 -
[IMG]museum_display_2005.jpg25-Sep-2005 13:05 32K
[IMG]musicplayer.png30-Aug-2007 12:33 791
[IMG]mustaine.jpg13-Jan-2006 13:31 25K
[IMG]mustaine03.jpg13-Jan-2006 13:31 15K
[IMG]mustaine1.jpg06-Feb-2006 15:31 22K
[IMG]mvc_782x.jpg25-Sep-2005 13:05 63K
[IMG]namm04.jpg25-Sep-2005 13:05 67K
[IMG]namm05.jpg13-Jan-2006 13:31 18K
[IMG]namm_bench.jpg25-Sep-2005 13:05 52K
[IMG]namm_dimegroup.jpg25-Sep-2005 13:05 41K
[IMG]namm_george.jpg25-Sep-2005 13:05 23K
[IMG]namm_jeff.jpg25-Sep-2005 13:05 29K
[IMG]namm_jerry.jpg25-Sep-2005 13:05 26K
[IMG]namm_lyle.jpg25-Sep-2005 13:05 23K
[IMG]namm_scott.jpg25-Sep-2005 13:05 23K
[IMG]namm_swd.jpg25-Sep-2005 13:05 25K
[IMG]namm_terry.jpg25-Sep-2005 13:05 22K
[IMG]namm_wayne.jpg25-Sep-2005 13:05 20K
[IMG]namm_wayne.sm.jpg25-Sep-2005 13:05 6.3K
[IMG]natural.jpg25-Sep-2005 13:05 3.1K
[IMG]necs.gif25-Sep-2005 13:05 63K
[IMG]necs.jpg25-Sep-2005 13:05 25K
[IMG]neil_zaza.jpg17-Mar-2006 13:04 8.2K
[IMG]new_catalog.jpg13-Jan-2006 13:31 22K
[IMG]new_prod.jpg25-Sep-2005 13:05 5.7K
[IMG]new_products.jpg01-May-2006 12:01 20K
[DIR]new_products/22-Jan-2008 11:29 -
[IMG]new_ssb4.jpg25-Sep-2005 13:05 7.9K
[IMG]new_ssb4_1.jpg27-Dec-2005 12:59 7.9K
[IMG]new_wavelength.jpg16-Mar-2006 16:04 9.2K
[DIR]new_web/19-Dec-2011 17:32 -
[DIR]news/12-Apr-2007 10:07 -
[DIR]newsite/26-Aug-2010 09:27 -
[IMG]newsletter.jpg04-Aug-2006 14:48 1.2K
[IMG]newsletter_descr.jpg25-Sep-2005 13:05 17K
[IMG]newsletters.jpg25-Sep-2005 13:05 8.8K
[DIR]newsletters/30-Jan-2009 16:05 -
[IMG]newsletters_01.gif13-Jan-2006 13:31 281
[IMG]newsletters_02.gif13-Jan-2006 13:31 11K
[IMG]newsletters_03.gif13-Jan-2006 13:31 10K
[IMG]nick_perry.jpg21-Oct-2005 13:33 33K
[IMG]nokiestrathb.jpg25-Sep-2005 13:05 26K
[IMG]nopic.gif25-Sep-2005 13:05 1.5K
[IMG]oem.jpg22-Jun-2006 15:42 9.4K
[DIR]oem/12-Nov-2007 09:54 -
[IMG]oem_descr.jpg25-Sep-2005 13:05 23K
[IMG]oem_pu.jpg25-Sep-2005 13:05 9.8K
[IMG]oi_cover.jpg25-Sep-2005 13:05 9.7K
[IMG]ok_button.gif26-Aug-2010 15:54 689
[IMG]onyx.jpg12-Nov-2007 09:51 20K
[IMG]orange-bullet.gif12-Oct-2006 10:26 56
[IMG]outline.jpg25-Sep-2005 13:05 3.2K
[IMG]output1.gif01-Dec-2005 18:49 493
[IMG]output1.jpg25-Sep-2005 13:05 1.1K
[IMG]output2.gif01-Dec-2005 18:49 475
[IMG]output2.jpg25-Sep-2005 13:05 1.1K
[IMG]outputwhite.jpg25-Sep-2005 13:05 1.1K
[IMG]overit014webfinal.jpg25-Sep-2005 13:05 13K
[IMG]ozfox.jpg25-Sep-2005 13:05 72K
[IMG]p90.jpg25-Sep-2005 13:05 24K
[IMG]p90ricsc.jpg25-Sep-2005 13:05 41K
[IMG]p90stackde.jpg25-Sep-2005 13:05 26K
[IMG]p90strat.jpg25-Sep-2005 13:05 22K
[IMG]p1010147.jpg25-Sep-2005 13:05 17K
[IMG]p7290001.jpg25-Sep-2005 13:05 134K
[IMG]pa-stk1.jpg25-Sep-2005 13:05 9.8K
[IMG]pa-tb1.jpg25-Sep-2005 13:05 11K
[IMG]patb1.jpg25-Sep-2005 13:05 6.3K
[IMG]pca-banners.gif17-May-2006 15:27 224K
[IMG]pca-button.gif17-May-2006 15:27 181K
[IMG]peacock.jpg13-Jan-2006 13:31 19K
[   ]pedals_300x250.swf12-Apr-2006 15:57 28K
[IMG]phat_cat_gc.jpg25-Sep-2005 13:05 13K
[IMG]phatcat.jpg25-Sep-2005 13:05 10K
[IMG]phatcatcs.jpg25-Sep-2005 13:05 28K
[IMG]pick-ups2.jpg25-Sep-2005 13:05 88K
[IMG]pick-ups_small.jpg25-Sep-2005 13:05 14K
[   ]pickup_booster_manual.pdf19-Dec-2006 12:48 465K
[IMG]pickup_sets.jpg25-Sep-2005 13:05 19K
[IMG]pickuprack.jpg25-Sep-2005 13:05 10K
[DIR]pickups-101/22-Aug-2011 13:36 -
[   ]pickups_728x90.swf12-Apr-2006 16:02 17K
[DIR]pinck_bucker/26-Oct-2010 16:35 -
[DIR]platinum_dealers/10-Dec-2008 16:33 -
[IMG]players_picks.jpg25-Sep-2005 13:05 2.0K
[IMG]popupicons.jpg04-May-2007 09:44 42K
[IMG]poster.jpg25-Sep-2005 13:05 66K
[IMG]poster1.jpg25-Sep-2005 13:05 66K
[IMG]poster1s.jpg25-Sep-2005 13:05 22K
[IMG]posters.jpg25-Sep-2005 13:05 22K
[IMG]precix_ash_white.jpg25-Sep-2005 13:05 24K
[IMG]precix_mahog_black.jpg25-Sep-2005 13:05 29K
[IMG]press_01.gif16-Mar-2006 16:09 281
[IMG]press_02.gif16-Mar-2006 16:09 20K
[IMG]press_03.gif16-Mar-2006 16:09 21K
[DIR]press_releases/16-Mar-2010 15:34 -
[IMG]pro.jpg25-Sep-2005 13:05 1.9K
[IMG]prodfloor.jpg25-Sep-2005 13:05 119K
[IMG]prodfloors.jpg25-Sep-2005 13:05 25K
[IMG]product.gif25-Sep-2005 13:05 42K
[IMG]product.jpg25-Aug-2006 15:23 142K
[IMG]product2.jpg11-Sep-2006 11:13 96K
[IMG]production1.jpg25-Sep-2005 13:05 73K
[IMG]production1s.jpg25-Sep-2005 13:05 18K
[IMG]production2.jpg25-Sep-2005 13:05 60K
[IMG]production2s.jpg25-Sep-2005 13:05 17K
[IMG]production3.jpg25-Sep-2005 13:05 85K
[IMG]production3s.jpg25-Sep-2005 13:05 24K
[IMG]production4.jpg25-Sep-2005 13:05 80K
[IMG]production4s.jpg25-Sep-2005 13:05 24K
[IMG]production5.jpg25-Sep-2005 13:05 94K
[IMG]production5s.jpg25-Sep-2005 13:05 25K
[IMG]production6.jpg25-Sep-2005 13:05 82K
[IMG]production6s.jpg25-Sep-2005 13:05 24K
[IMG]products.gif04-Aug-2006 14:48 453
[DIR]products/05-Nov-2013 14:46 -
[IMG]produstion.jpg25-Sep-2005 13:05 76K
[IMG]produstions.jpg25-Sep-2005 13:05 24K
[IMG]protofade.jpg10-Jul-2009 14:37 11K
[IMG]q_a.jpg25-Sep-2005 13:05 9.0K
[IMG]q_adesc.jpg25-Sep-2005 13:05 20K
[IMG]qanda.jpg25-Sep-2005 13:05 17K
[IMG]quicktimelogo.jpg25-Sep-2005 13:05 5.2K
[IMG]r_jackson.jpg25-Sep-2005 13:05 23K
[IMG]rails_01.gif25-Oct-2005 14:51 1.6K
[IMG]rails_02.gif25-Oct-2005 14:51 16K
[IMG]rails_03.gif25-Oct-2005 14:51 23K
[IMG]rails_redesign.jpg25-Sep-2005 13:05 12K
[DIR]rails_redesign/25-Sep-2005 13:05 -
[IMG]ravi.jpg22-May-2006 16:34 6.9K
[IMG]red_cross.jpg25-Sep-2005 13:05 12K
[IMG]remora6.gif18-Oct-2003 12:15 3.3K
[IMG]remove.jpg25-Sep-2005 13:05 61K
[IMG]remove2.jpg25-Sep-2005 13:05 66K
[IMG]reps.jpg25-Sep-2005 13:05 7.7K
[IMG]request_info.jpg25-Sep-2005 13:05 8.3K
[IMG]ripcs.jpg25-Sep-2005 13:05 19K
[IMG]rise_against.jpg07-Nov-2005 12:36 23K
[IMG]riseagainstnewpublicityshot.jpg25-Sep-2005 13:05 14K
[IMG]rmedlocke.jpg25-Sep-2005 13:05 25K
[IMG]robben.jpg25-Sep-2005 13:05 31K
[IMG]robben_swd.jpg25-Sep-2005 13:05 118K
[IMG]robben_swd1.jpg25-Sep-2005 13:05 27K
[IMG]robben_swd_sm.jpg25-Sep-2005 13:05 18K
[IMG]rock_web.jpg21-Oct-2010 14:41 60K
[IMG]roxanneprestige.JPG25-Sep-2005 13:05 106K
[IMG]roxannestd25-Sep-2005 13:05 117K
[IMG]rss.png16-Jan-2008 18:26 1.7K
[IMG]sa-1_new.jpg25-Sep-2005 13:05 26K
[IMG]salesmeeting.jpg25-Sep-2005 13:05 80K
[IMG]salesmeetings.jpg25-Sep-2005 13:05 23K
[IMG]sampic.gif25-Sep-2005 13:05 40K
[IMG]schematic_desc.jpg25-Sep-2005 13:05 21K
[IMG]schematics.jpg25-Sep-2005 13:05 25K
[DIR]schematics/16-Jan-2007 22:09 -
[IMG]schematics_01.gif03-Oct-2005 16:45 13K
[IMG]schematics_02.gif03-Oct-2005 16:45 32K
[IMG]schematics_03.gif03-Oct-2005 16:45 47K
[IMG]scott.jpg25-Sep-2005 13:05 70K
[IMG]scotts.jpg25-Sep-2005 13:05 23K
[IMG]scpb-1.jpg25-Sep-2005 13:05 11K
[IMG]scpb-3.jpg25-Sep-2005 13:05 11K
[IMG]scpb_2.jpg25-Sep-2005 13:05 4.1K
[IMG]scr-1_new.gif25-Sep-2005 13:05 12K
[IMG]sd.jpg25-Sep-2005 13:05 16K
[DIR]sd/03-Aug-2010 15:07 -
[IMG]sd_home.gif25-Sep-2005 13:05 49K
[IMG]sd_home.jpg25-Sep-2005 13:05 11K
[IMG]sd_home2.jpg25-Sep-2005 13:05 28K
[IMG]sd_home_1.jpg25-Sep-2005 13:05 7.6K
[IMG]sd_tab2_v2.jpg24-Jul-2012 16:15 29K
[IMG]sdbr-1_new.gif25-Sep-2005 13:05 11K
[IMG]sdeco.gif25-Sep-2005 13:05 75K
[IMG]sdeco.jpg25-Sep-2005 13:05 26K
[IMG]sdhome.jpg25-Sep-2005 13:05 91K
[IMG]sdintro.jpg25-Sep-2005 13:05 65K
[IMG]sdqanda.jpg25-Sep-2005 13:05 6.3K
[IMG]search_button.gif26-Aug-2010 15:54 617
[IMG]search_site.gif25-Sep-2005 13:05 1.3K
[IMG]sethlover.jpg25-Sep-2005 13:05 63K
[IMG]sethlovers.jpg25-Sep-2005 13:05 23K
[IMG]setups_desc.jpg25-Sep-2005 13:05 21K
[IMG]setups_desc_1.jpg25-Sep-2005 13:05 19K
[IMG]setups_pu.jpg25-Sep-2005 13:05 7.0K
[IMG]seymour.jpg25-Sep-2005 13:05 7.9K
[IMG]seymour1.jpg25-Sep-2005 13:05 87K
[IMG]seymour_01.gif05-Oct-2005 13:39 12K
[IMG]seymour_02.gif05-Oct-2005 13:39 24K
[IMG]seymour_03.gif05-Oct-2005 13:39 33K
[IMG]seymour_and_evan.jpg25-Sep-2005 13:05 273K
[IMG]seymour_and_evans.jpg25-Sep-2005 13:05 80K
[IMG]seymour_descr.jpg25-Sep-2005 13:05 11K
[IMG]seymour_jammin.jpg25-Sep-2005 13:05 18K
[IMG]seymours.jpg25-Sep-2005 13:05 25K
[IMG]seymourwhite.jpg13-Jan-2006 13:31 22K
[IMG]sfx_03.jpg06-Feb-2006 14:53 23K
[   ]sfx_03_manual.pdf13-Apr-2006 14:38 543K
[IMG]sh-3.jpg25-Sep-2005 13:05 12K
[IMG]sh-10b.jpg25-Sep-2005 13:05 11K
[IMG]sh-10b_2.jpg25-Sep-2005 13:05 12K
[IMG]sh-13.jpg25-Sep-2005 13:05 11K
[IMG]sh-55gc.jpg25-Sep-2005 13:05 11K
[IMG]shadow.png11-Jul-2008 18:15 1.7K
[IMG]shop.gif25-Sep-2005 13:05 5.3K
[IMG]sieldiablocs.gif25-Sep-2005 13:05 72K
[IMG]sieldiablocs.jpg25-Sep-2005 13:05 26K
[IMG]singlecoil.jpg25-Sep-2005 13:05 2.0K
[IMG]sj5.jpg25-Sep-2005 13:05 9.6K
[IMG]sj5_3b.jpg07-Jan-2008 11:12 37K
[IMG]sjag-1.jpg25-Sep-2005 13:05 9.1K
[IMG]sjag-3.jpg25-Sep-2005 13:05 8.6K
[IMG]sjb-3.jpg25-Sep-2005 13:05 9.2K
[IMG]sjb-5_ajb-5.jpg25-Sep-2005 13:05 7.6K
[IMG]sjbj-1_new.gif25-Sep-2005 13:05 9.6K
[IMG]sjm-1_2.jpg25-Sep-2005 13:05 11K
[IMG]sjm-3.jpg25-Sep-2005 13:05 11K
[IMG]sl59-1_new.gif25-Sep-2005 13:05 14K
[IMG]slash.jpg25-Oct-2005 14:24 20K
[IMG]slash_closeup.jpg25-Sep-2005 13:05 4.8K
[IMG]sld-1.jpg25-Sep-2005 13:05 8.3K
[DIR]slideshows/13-Mar-2007 14:49 -
[IMG]sls-1.jpg25-Sep-2005 13:05 7.0K
[IMG]slsd-1_new.gif25-Sep-2005 13:05 14K
[IMG]sm-1_2_3.jpg25-Sep-2005 13:05 27K
[IMG]smb-4.jpg25-Sep-2005 13:05 12K
[IMG]smb-5.jpg25-Sep-2005 13:05 11K
[IMG]smiling.gif25-Sep-2005 13:05 26K
[IMG]snowboarding.jpg23-May-2006 11:27 12K
[IMG]sns.jpg25-Sep-2005 13:05 5.6K
[DIR]social/26-Jul-2011 16:23 -
[IMG]soundbytes.jpg25-Sep-2005 13:05 4.6K
[IMG]soundbytes_desc.jpg25-Sep-2005 13:05 26K
[IMG]soundbytes_pu.jpg25-Sep-2005 13:05 9.0K
[IMG]sp90-1.jpg25-Sep-2005 13:05 8.5K
[IMG]spacer.jpg25-Sep-2005 13:05 449
[IMG]spacer1.jpg25-Sep-2005 13:05 370
[IMG]spacer_rails.jpg25-Sep-2005 13:05 618
[IMG]spain.jpg24-Oct-2005 15:25 34K
[IMG]spb-1_2.jpg25-Sep-2005 13:05 11K
[IMG]spb-2.gif25-Sep-2005 13:05 10K
[IMG]speaker.gif17-Jul-2007 13:51 104
[IMG]special_01.gif28-Sep-2005 15:25 658
[IMG]special_02.gif28-Sep-2005 15:25 18K
[IMG]special_03.gif28-Sep-2005 15:25 19K
[IMG]special_desc.gif25-Sep-2005 13:05 25K
[IMG]special_desc1.jpg25-Sep-2005 13:05 5.6K
[IMG]special_desc2.jpg25-Sep-2005 13:05 12K
[IMG]special_pu.gif25-Sep-2005 13:05 2.1K
[IMG]spr96tip.jpg25-Sep-2005 13:05 35K
[IMG]spr99.gif25-Sep-2005 13:05 15K
[IMG]srb-1.jpg25-Sep-2005 13:05 9.2K
[IMG]srb-1w_oplate.jpg25-Sep-2005 13:05 8.5K
[IMG]srb-1withplate.jpg25-Sep-2005 13:05 8.6K
[IMG]ssb4_phase_II_passive.jpg25-Sep-2005 13:05 5.2K
[IMG]ssl-2.jpg25-Sep-2005 13:05 9.9K
[IMG]ssl-3.jpg25-Sep-2005 13:05 7.8K
[IMG]ssl-7.jpg25-Sep-2005 13:05 6.4K
[IMG]ssl5.jpg25-Sep-2005 13:05 8.5K
[IMG]ssl52.jpg25-Sep-2005 13:05 10K
[IMG]sslpg.jpg25-Sep-2005 13:05 22K
[IMG]stackplus_small.jpg19-Dec-2005 11:32 25K
[IMG]staple_p90.gif25-Sep-2005 13:05 60K
[IMG]staple_p90.jpg25-Sep-2005 13:05 21K
[IMG]stc2sb.gif25-Sep-2005 13:05 17K
[IMG]stc_2.gif25-Sep-2005 13:05 14K
[IMG]stc_3m3.gif25-Sep-2005 13:05 14K
[IMG]stk-p1.jpg25-Sep-2005 13:05 8.1K
[IMG]stk-s2.jpg25-Sep-2005 13:05 10K
[IMG]stk-s4_artists.jpg13-Jan-2006 13:31 4.5K
[IMG]stk-t1.jpg25-Sep-2005 13:05 11K
[IMG]stk-t2.jpg25-Sep-2005 13:05 10K
[IMG]stk-t3.jpg25-Sep-2005 13:05 8.5K
[IMG]stk_s1.jpg25-Sep-2005 13:05 3.4K
[IMG]stk_s4.jpg20-Dec-2005 13:44 9.8K
[IMG]stks4_new_prod.jpg05-Jan-2006 11:56 5.5K
[IMG]stl-1b.jpg25-Sep-2005 13:05 12K
[IMG]stl-3.jpg25-Sep-2005 13:05 12K
[IMG]stl52.jpg25-Sep-2005 13:05 11K
[IMG]str-1.jpg25-Sep-2005 13:05 8.1K
[IMG]str52.jpg25-Sep-2005 13:05 8.3K
[IMG]straps.jpg25-Sep-2005 13:05 3.7K
[IMG]strat.jpg25-Sep-2005 13:05 11K
[IMG]strat7cs.jpg25-Sep-2005 13:05 24K
[IMG]strat13_091f.jpg25-Sep-2005 13:05 30K
[IMG]strat_01.gif28-Sep-2005 15:25 1.8K
[IMG]strat_02.gif28-Sep-2005 15:25 18K
[IMG]strat_03.gif28-Sep-2005 15:25 26K
[IMG]stratdescription.jpg25-Sep-2005 13:05 5.2K
[IMG]stratdescription1.jpg25-Sep-2005 13:05 12K
[IMG]stratpickups.gif25-Sep-2005 13:05 15K
[IMG]strungout_bane.jpg07-Nov-2005 12:36 25K
[IMG]sugarcult.jpg25-Sep-2005 13:05 22K
[IMG]sum96tip.jpg25-Sep-2005 13:05 35K
[IMG]summer01.jpg25-Sep-2005 13:05 24K
[IMG]summer04.jpg25-Sep-2005 13:05 13K
[IMG]summer05.jpg13-Jan-2006 13:31 25K
[IMG]summer06.jpg22-May-2006 16:34 14K
[DIR]summer08/20-Aug-2008 16:28 -
[IMG]support.gif04-Aug-2006 14:48 445
[DIR]support/09-Aug-2011 16:20 -
[IMG]surftech.jpg25-Sep-2005 13:05 3.5K
[IMG]sushiback.jpg25-Sep-2005 13:05 7.3K
[IMG]sushibb.jpg25-Sep-2005 13:05 17K
[IMG]sushiclose.jpg25-Sep-2005 13:05 29K
[IMG]sushigirl.jpg25-Sep-2005 13:05 15K
[IMG]svr-1.jpg25-Sep-2005 13:05 29K
[IMG]svr-1_new.gif25-Sep-2005 13:05 12K
[IMG]svr-1_new.jpg25-Sep-2005 13:05 3.8K
[DIR]swag/13-Feb-2007 16:17 -
[IMG]swag_desc.jpg25-Sep-2005 13:05 25K
[IMG]swag_desc2.jpg25-Sep-2005 13:05 37K
[IMG]swag_pu.jpg25-Sep-2005 13:05 5.1K
[DIR]swd_corner/13-Aug-2010 16:50 -
[IMG]switch_f_bp.jpg11-Feb-2008 08:00 170K
[IMG]taking_back-_sunday.jpg27-Apr-2006 13:53 25K
[   ]tara_manual.pdf25-Sep-2005 13:05 119K
[IMG]tb-4.jpg25-Sep-2005 13:05 12K
[IMG]tb-10.jpg25-Sep-2005 13:05 11K
[IMG]tb-12_2.jpg25-Sep-2005 13:05 11K
[IMG]tb-59.jpg25-Sep-2005 13:05 12K
[IMG]tb-59a.jpg25-Sep-2005 13:05 12K
[IMG]tech_tips.jpg25-Sep-2005 13:05 14K
[IMG]tech_tips_01.gif03-Oct-2005 16:36 11K
[IMG]tech_tips_02.gif03-Oct-2005 16:36 40K
[IMG]tech_tips_03.gif03-Oct-2005 16:36 39K
[IMG]tech_tips_desc.jpg25-Sep-2005 13:05 21K
[IMG]techtip99.gif25-Sep-2005 13:05 38K
[IMG]techtips_pu.jpg25-Sep-2005 13:05 12K
[IMG]tele.jpg25-Sep-2005 13:05 9.5K
[IMG]tele7cs.gif25-Sep-2005 13:05 75K
[IMG]tele7cs.jpg25-Sep-2005 13:05 27K
[IMG]tele_01.gif28-Sep-2005 15:25 3.0K
[IMG]tele_02.gif28-Sep-2005 15:25 30K
[IMG]tele_03.gif28-Sep-2005 15:25 34K
[IMG]tele_desc.gif25-Sep-2005 13:05 54K
[IMG]tele_desc.jpg25-Sep-2005 13:05 4.5K
[IMG]tele_desc1.jpg25-Sep-2005 13:05 16K
[IMG]telepickups.gif25-Sep-2005 13:05 12K
[IMG]test.jpg02-Apr-2012 10:30 16K
[IMG]text.jpg25-Sep-2005 13:05 4.7K
[IMG]todds.jpg25-Sep-2005 13:05 86K
[IMG]tone_w_01.gif21-Oct-2005 10:15 11K
[IMG]tone_w_02.gif21-Oct-2005 10:14 29K
[IMG]tone_w_03.gif21-Oct-2005 10:14 36K
[IMG]tone_w_desc.jpg14-Aug-2006 16:48 11K
[IMG]tone_wizard.jpg25-Sep-2005 13:05 5.8K
[   ]tonechart.pdf25-Sep-2005 13:05 292K
[DIR]tones/28-Jan-2008 15:17 -
[IMG]tonestarII_fanoguitars.jpg25-Sep-2005 13:05 26K
[IMG]top_logo.jpg25-Sep-2005 13:05 33K
[IMG]topbg.jpg25-Sep-2005 13:05 721
[IMG]topheader.jpg25-Sep-2005 13:05 8.6K
[IMG]toplogo.gif16-Feb-2007 10:43 4.8K
[IMG]toplogo.jpg25-Sep-2005 13:05 11K
[IMG]toplogo.off.gif25-Sep-2005 13:05 5.3K
[IMG]tour.jpg23-May-2006 13:10 20K
[DIR]tour/09-Dec-2005 09:44 -
[IMG]tour_diary.jpg23-May-2006 13:18 27K
[DIR]tour_diary/27-Feb-2006 11:12 -
[IMG]tv.gif25-Sep-2005 13:05 35K
[IMG]tweak.jpg27-Dec-2005 12:59 19K
[IMG]tweak_fuzz.jpg06-Feb-2006 15:03 23K
[   ]tweak_fuzz_gp_review.pdf25-Sep-2005 13:05 211K
[IMG]tweak_new_prod.jpg25-Sep-2005 13:05 17K
[IMG]twin11510-10.jpg25-Sep-2005 13:05 9.2K
[IMG]twinntx.jpg25-Sep-2005 13:05 7.6K
[IMG]twinxl.jpg25-Sep-2005 13:05 8.7K
[IMG]tyler_tour.jpg21-Oct-2005 12:10 39K
[IMG]tyler_tour_p.jpg21-Oct-2005 12:33 20K
[IMG]type1.gif01-Dec-2005 18:49 425
[IMG]type2.gif01-Dec-2005 18:49 729
[IMG]ugd.jpg25-Sep-2005 13:05 26K
[IMG]ugd_uk.jpg13-Jan-2006 13:31 23K
[IMG]unitedbytone.jpg25-Sep-2005 13:05 19K
[IMG]unwrittenlaw.jpg25-Sep-2005 13:05 15K
[IMG]user1.gif01-Dec-2005 18:50 433
[IMG]user2.gif01-Dec-2005 18:50 474
[IMG]user_group_banner.gif25-Sep-2005 13:05 452K
[IMG]user_group_logo.jpg25-Sep-2005 13:05 11K
[IMG]user_group_uk_v3.gif25-Sep-2005 13:05 515K
[IMG]user_group_uk_v4.gif25-Sep-2005 13:05 479K
[TXT]users.shtml28-Jun-2006 14:05 5.9K
[IMG]users_descr.jpg25-Sep-2005 13:05 31K
[IMG]vegas_back.jpg25-Sep-2005 13:05 8.0K
[IMG]vegas_front.jpg25-Sep-2005 13:05 6.9K
[IMG]vegas_tee.jpg25-Sep-2005 13:05 6.7K
[IMG]vern@martiniblues.jpg25-Sep-2005 13:05 19K
[IMG]vern_at_namm.jpg25-Sep-2005 13:05 63K
[IMG]videos.jpg25-Sep-2005 13:05 14K
[IMG]videos_pu.jpg25-Sep-2005 13:05 5.6K
[IMG]vintage_rails_big.jpg25-Sep-2005 13:05 14K
[   ]vintage_rails_bridge.pdf25-Sep-2005 13:05 9.2K
[   ]vintage_rails_neck.pdf25-Sep-2005 13:05 9.2K
[IMG]vintage_rails_redesign.jpg25-Sep-2005 13:05 3.2K
[IMG]violin11510-40.jpg25-Sep-2005 13:05 6.6K
[DIR]wall_of_fame/06-Oct-2005 17:12 -
[IMG]wallofpickups.jpg25-Sep-2005 13:05 10K
[IMG]wallpaper.jpg25-Sep-2005 13:05 8.0K
[IMG]wallpaper_desc.jpg25-Sep-2005 13:05 21K
[IMG]warmoth.gif25-Sep-2005 13:05 4.1K
[IMG]waxpot.jpg25-Sep-2005 13:05 88K
[IMG]waxpots.jpg25-Sep-2005 13:05 24K
[IMG]web1.gif25-Sep-2005 13:05 825
[IMG]web2.gif25-Sep-2005 13:05 956
[IMG]web3.gif25-Sep-2005 13:05 1.0K
[IMG]web4.gif25-Sep-2005 13:05 851
[IMG]web5.gif25-Sep-2005 13:05 851
[IMG]website.jpg25-Sep-2005 13:05 14K
[IMG]weee.jpg24-Aug-2007 14:56 1.8K
[IMG]welcome.jpg25-Sep-2005 13:05 9.6K
[IMG]whatis.jpg25-Sep-2005 13:05 6.7K
[IMG]whatis_pu.jpg25-Sep-2005 13:05 8.2K
[IMG]whatsnew.jpg25-Sep-2005 13:05 5.2K
[IMG]wheels.jpg25-Sep-2005 13:05 12K
[DIR]win/17-Apr-2008 14:17 -
[IMG]win95tip.jpg25-Sep-2005 13:05 40K
[   ]win_a_mama_bear.swf20-Jun-2006 16:09 18K
[IMG]winter02.jpg25-Sep-2005 13:05 14K
[IMG]winter05.jpg25-Sep-2005 13:05 7.9K
[IMG]winter06.jpg22-May-2006 16:34 12K
[IMG]wires.jpg25-Sep-2005 13:05 93K
[IMG]wiress.jpg25-Sep-2005 13:05 25K
[DIR]wishlist/09-Oct-2008 14:55 -
[   ]wishlist_winter_08.swf22-Oct-2008 09:57 105K
[DIR]woody/30-Sep-2010 19:14 -
[IMG]woody_hc.jpg25-Sep-2005 13:05 4.3K
[IMG]woody_sc.jpg25-Sep-2005 13:05 4.7K
[IMG]woody_xl.jpg25-Sep-2005 13:05 4.5K
[IMG]wrcs.jpg25-Sep-2005 13:05 14K
[IMG]wrhbcs.jpg25-Sep-2005 13:05 10K
[IMG]zephyr_warranty.jpg02-Jun-2011 17:07 14K

Apache Server at www.seymourduncan.com Port 80